Time;durP1;ratioP1;P1;durP2;ratioP2;P2;SDS_P1;SDS_P2;PMS_P1;PMS_P2;Temp;Humidity;BMP_temperature;BMP_pressure;BME280_temperature;BME280_humidity;BME280_pressure;Samples;Min_cycle;Max_cycle;Signal;HPM_P1;HPM_P2
2022/05/27 00:01:37;;;;;;;9.88;4.85;;;13.70;99.90;;;;;;4994292;28;20053;-79
2022/05/27 00:04:04;;;;;;;13.18;5.00;;;13.60;99.90;;;;;;4972134;28;20050;-79
2022/05/27 00:06:30;;;;;;;11.55;5.03;;;13.60;99.90;;;;;;4997724;28;20049;-79
2022/05/27 00:08:57;;;;;;;14.27;5.28;;;13.60;99.90;;;;;;4994774;28;20514;-78
2022/05/27 00:11:24;;;;;;;11.02;5.13;;;13.50;99.90;;;;;;4982458;28;20056;-79
2022/05/27 00:13:51;;;;;;;13.13;5.80;;;13.50;99.90;;;;;;4993090;28;20396;-78
2022/05/27 00:16:21;;;;;;;13.15;4.80;;;13.50;99.90;;;;;;5004899;28;20045;-79
2022/05/27 00:18:47;;;;;;;10.90;4.57;;;13.50;99.90;;;;;;4997047;28;20132;-79
2022/05/27 00:21:14;;;;;;;11.70;5.18;;;13.50;99.90;;;;;;5009698;28;20590;-79
2022/05/27 00:23:41;;;;;;;10.35;4.47;;;13.50;99.90;;;;;;4974313;28;20076;-79
2022/05/27 00:26:08;;;;;;;8.13;4.45;;;13.50;99.90;;;;;;5000068;28;20388;-79
2022/05/27 00:28:34;;;;;;;9.73;4.35;;;13.40;99.90;;;;;;4960247;28;20045;-79
2022/05/27 00:31:01;;;;;;;10.15;3.63;;;13.40;99.90;;;;;;5016729;28;20051;-79
2022/05/27 00:33:27;;;;;;;10.68;4.15;;;13.40;99.90;;;;;;4983674;28;20053;-79
2022/05/27 00:35:53;;;;;;;9.60;3.92;;;13.40;99.90;;;;;;4982007;28;20052;-79
2022/05/27 00:38:19;;;;;;;10.82;4.15;;;13.40;99.90;;;;;;4995014;28;20608;-79
2022/05/27 00:40:49;;;;;;;8.20;3.83;;;13.40;99.90;;;;;;5004949;28;20053;-79
2022/05/27 00:43:16;;;;;;;10.65;4.18;;;13.30;99.90;;;;;;4992848;28;20049;-79
2022/05/27 00:45:45;;;;;;;10.10;4.45;;;13.30;99.90;;;;;;5007002;28;20045;-79
2022/05/27 00:48:19;;;;;;;9.38;4.18;;;13.30;99.90;;;;;;4992463;28;20053;-78
2022/05/27 00:50:47;;;;;;;8.60;3.90;;;13.30;99.90;;;;;;5011868;28;20049;-79
2022/05/27 00:53:21;;;;;;;8.80;4.30;;;13.30;99.90;;;;;;4986275;28;20132;-79
2022/05/27 00:55:51;;;;;;;11.82;4.75;;;13.30;99.90;;;;;;5003726;28;20484;-79
2022/05/27 00:58:24;;;;;;;6.95;3.92;;;13.30;99.90;;;;;;4987678;28;20459;-79
2022/05/27 01:00:51;;;;;;;7.43;4.13;;;13.30;99.90;;;;;;5008812;28;20045;-79
2022/05/27 01:03:18;;;;;;;8.23;4.95;;;13.30;99.90;;;;;;5002854;28;20046;-79
2022/05/27 01:05:45;;;;;;;14.43;5.18;;;13.30;99.90;;;;;;4990983;28;20131;-79
2022/05/27 01:08:14;;;;;;;11.60;5.22;;;13.30;99.90;;;;;;5002512;28;20433;-79
2022/05/27 01:11:00;;;;;;;8.80;5.47;;;13.30;99.90;;;;;;5020545;28;20068;-79
2022/05/27 01:13:34;;;;;;;12.43;5.30;;;13.30;99.90;;;;;;4973621;28;20137;-79
2022/05/27 01:16:09;;;;;;;11.63;5.35;;;13.30;99.90;;;;;;5005758;28;20168;-79
2022/05/27 01:21:41;;;;;;;14.00;6.53;;;13.20;99.90;;;;;;5016116;28;20102;-78
2022/05/27 01:24:43;;;;;;;15.40;6.53;;;13.20;99.90;;;;;;4995138;28;20045;-78
2022/05/27 01:27:12;;;;;;;13.85;6.55;;;13.20;99.90;;;;;;5013297;28;20053;-78
2022/05/27 01:29:50;;;;;;;14.20;5.97;;;13.10;99.90;;;;;;5016407;28;20044;-78
2022/05/27 01:32:26;;;;;;;15.13;6.00;;;13.10;99.90;;;;;;5020284;28;20041;-78
2022/05/27 01:35:04;;;;;;;16.90;6.22;;;13.10;99.90;;;;;;5003352;28;20049;-78
2022/05/27 01:37:49;;;;;;;15.88;6.93;;;13.00;99.90;;;;;;5001144;28;20091;-78
2022/05/27 01:40:40;;;;;;;13.88;6.13;;;13.00;99.90;;;;;;5009604;28;20052;-78
2022/05/27 01:43:47;;;;;;;15.87;6.83;;;13.00;99.90;;;;;;5020161;28;20138;-78
2022/05/27 01:46:25;;;;;;;15.68;5.90;;;12.90;99.90;;;;;;5018842;28;20065;-78
2022/05/27 01:49:24;;;;;;;15.93;6.80;;;12.80;99.90;;;;;;5025537;28;20041;-78
2022/05/27 01:52:12;;;;;;;14.52;6.78;;;12.80;99.90;;;;;;5011705;28;20051;-77
2022/05/27 01:54:51;;;;;;;14.65;6.55;;;12.80;99.90;;;;;;5016873;28;20053;-77
2022/05/27 01:57:36;;;;;;;15.68;5.95;;;12.80;99.90;;;;;;5002164;28;20076;-78
2022/05/27 02:00:11;;;;;;;14.68;6.20;;;12.80;99.90;;;;;;5021412;28;20057;-78
2022/05/27 02:03:09;;;;;;;15.02;6.35;;;12.80;99.90;;;;;;5005035;28;20045;-78
2022/05/27 02:06:16;;;;;;;17.02;5.95;;;12.70;99.90;;;;;;4991478;28;20040;-78
2022/05/27 02:08:57;;;;;;;15.80;6.05;;;12.80;99.90;;;;;;4990901;28;20458;-78
2022/05/27 02:11:24;;;;;;;18.00;6.22;;;12.70;99.90;;;;;;5007448;28;20053;-78
2022/05/27 02:14:02;;;;;;;18.45;7.18;;;12.80;99.90;;;;;;5020517;28;20503;-78
2022/05/27 02:16:44;;;;;;;13.18;5.90;;;12.80;99.90;;;;;;5005632;28;20135;-78
2022/05/27 02:19:13;;;;;;;;;;;12.80;99.90;;;;;;5018871;28;20041;-78
2022/05/27 02:21:46;;;;;;;14.55;5.57;;;12.80;99.90;;;;;;5016545;28;19970;-78
2022/05/27 02:24:36;;;;;;;16.85;6.50;;;12.80;99.90;;;;;;4979837;28;20046;-79
2022/05/27 02:27:14;;;;;;;23.05;6.75;;;12.80;99.90;;;;;;5011254;28;20052;-78
2022/05/27 02:29:45;;;;;;;15.05;6.20;;;12.80;99.90;;;;;;4993786;28;20127;-78
2022/05/27 02:32:18;;;;;;;12.82;5.97;;;12.80;99.90;;;;;;4998491;28;20041;-78
2022/05/27 02:35:09;;;;;;;21.60;6.50;;;12.70;99.90;;;;;;5021994;28;20141;-78
2022/05/27 02:37:47;;;;;;;25.43;7.00;;;12.70;99.90;;;;;;5018703;28;20390;-78
2022/05/27 02:40:17;;;;;;;14.43;6.00;;;12.70;99.90;;;;;;5007975;28;20318;-78
2022/05/27 02:43:11;;;;;;;16.52;5.82;;;12.60;99.90;;;;;;4992339;28;20063;-78
2022/05/27 02:45:47;;;;;;;22.23;6.88;;;12.50;99.90;;;;;;5023969;28;20056;-78
2022/05/27 02:48:35;;;;;;;16.75;5.65;;;12.50;99.90;;;;;;5020440;28;20041;-78
2022/05/27 02:51:29;;;;;;;17.35;5.95;;;12.50;99.90;;;;;;5032286;28;20053;-78
2022/05/27 02:54:13;;;;;;;15.52;6.07;;;12.40;99.90;;;;;;5034300;28;20073;-78
2022/05/27 02:56:46;;;;;;;18.23;6.10;;;12.40;99.90;;;;;;4996961;28;20037;-79
2022/05/27 02:59:17;;;;;;;19.63;6.03;;;12.30;99.90;;;;;;4988726;28;20045;-78
2022/05/27 03:01:47;;;;;;;25.80;7.32;;;12.30;99.90;;;;;;4997625;28;20053;-77
2022/05/27 03:04:15;;;;;;;16.27;6.85;;;12.30;99.90;;;;;;5018557;28;20045;-78
2022/05/27 03:06:50;;;;;;;22.40;7.22;;;12.30;99.90;;;;;;4999971;28;20041;-78
2022/05/27 03:09:42;;;;;;;21.00;7.25;;;12.30;99.90;;;;;;5010218;28;20049;-78
2022/05/27 03:12:14;;;;;;;19.70;8.95;;;12.30;99.90;;;;;;5023136;28;20058;-78
2022/05/27 03:14:59;;;;;;;;;;;12.30;99.90;;;;;;5007776;28;21465;-78
2022/05/27 03:17:52;;;;;;;17.63;6.88;;;12.30;99.90;;;;;;4991606;28;19921;-78
2022/05/27 03:20:27;;;;;;;23.17;7.40;;;12.30;99.90;;;;;;5005911;28;20049;-78
2022/05/27 03:23:26;;;;;;;21.90;7.72;;;12.30;99.90;;;;;;5019919;28;20049;-78
2022/05/27 03:26:11;;;;;;;22.70;7.65;;;12.20;99.90;;;;;;4992895;28;20049;-78
2022/05/27 03:28:37;;;;;;;20.35;6.97;;;12.20;99.90;;;;;;5013472;28;20547;-78
2022/05/27 03:31:21;;;;;;;19.15;7.60;;;12.20;99.90;;;;;;4974296;28;20052;-78
2022/05/27 03:34:03;;;;;;;28.83;8.38;;;12.20;99.90;;;;;;5027401;28;20044;-78
2022/05/27 03:36:34;;;;;;;23.40;6.93;;;12.20;99.90;;;;;;4988780;28;20513;-78
2022/05/27 03:39:04;;;;;;;;;;;12.10;99.90;;;;;;5001015;28;20095;-77
2022/05/27 03:41:35;;;;;;;20.27;6.75;;;12.10;99.90;;;;;;5000895;28;20284;-77
2022/05/27 03:44:02;;;;;;;20.05;6.30;;;12.10;99.90;;;;;;5022536;28;20590;-77
2022/05/27 03:46:35;;;;;;;25.27;7.38;;;12.10;99.90;;;;;;5003006;28;20463;-76
2022/05/27 03:49:02;;;;;;;21.08;7.57;;;12.10;99.90;;;;;;4989175;28;20528;-77
2022/05/27 03:51:32;;;;;;;25.92;5.90;;;12.00;99.90;;;;;;5020288;28;20064;-77
2022/05/27 03:54:04;;;;;;;22.10;6.80;;;12.10;99.90;;;;;;4994084;28;20657;-77
2022/05/27 03:56:39;;;;;;;23.02;6.50;;;12.10;99.90;;;;;;5020047;28;20487;-77
2022/05/27 03:59:11;;;;;;;14.90;5.85;;;12.10;99.90;;;;;;5007058;28;20156;-77
2022/05/27 04:01:41;;;;;;;17.83;6.65;;;12.10;99.90;;;;;;5012489;28;20045;-77
2022/05/27 04:04:10;;;;;;;29.08;7.88;;;12.20;99.90;;;;;;5027411;28;20055;-78
2022/05/27 04:06:36;;;;;;;18.52;6.40;;;12.20;99.90;;;;;;5009318;28;20124;-78
2022/05/27 04:09:03;;;;;;;21.80;6.20;;;12.20;99.90;;;;;;4975027;28;20079;-78
2022/05/27 04:11:30;;;;;;;26.13;6.25;;;12.30;99.90;;;;;;4979169;28;20488;-78
2022/05/27 04:13:56;;;;;;;27.25;5.80;;;12.30;99.90;;;;;;4964275;28;20552;-78
2022/05/27 04:16:23;;;;;;;17.60;5.30;;;12.40;99.90;;;;;;4996726;28;20081;-78
2022/05/27 04:18:50;;;;;;;14.95;5.13;;;12.40;99.90;;;;;;4968431;28;20049;-78
2022/05/27 04:21:16;;;;;;;18.90;5.30;;;12.40;99.90;;;;;;4999659;28;20044;-78
2022/05/27 04:23:42;;;;;;;19.48;5.30;;;12.40;99.90;;;;;;4970378;28;20049;-78
2022/05/27 04:26:09;;;;;;;22.23;5.93;;;12.40;99.90;;;;;;4972285;28;20061;-78
2022/05/27 04:28:35;;;;;;;16.58;5.72;;;12.50;99.90;;;;;;4971972;28;20050;-78
2022/05/27 04:31:02;;;;;;;18.33;4.75;;;12.50;99.90;;;;;;4958154;28;20136;-78
2022/05/27 04:33:29;;;;;;;16.98;5.05;;;12.50;99.90;;;;;;4975330;28;20046;-78
2022/05/27 04:35:56;;;;;;;20.27;5.53;;;12.50;99.90;;;;;;4985654;28;20053;-77
2022/05/27 04:38:23;;;;;;;17.30;4.60;;;12.60;99.90;;;;;;4966788;28;20136;-78
2022/05/27 04:40:49;;;;;;;21.60;5.30;;;12.60;99.90;;;;;;4983969;28;20057;-78
2022/05/27 04:43:15;;;;;;;18.98;3.95;;;12.60;99.90;;;;;;4989684;28;20049;-78
2022/05/27 04:45:42;;;;;;;18.83;4.50;;;12.50;99.90;;;;;;4998738;28;20532;-78
2022/05/27 04:48:09;;;;;;;16.45;4.25;;;12.50;99.90;;;;;;4971272;28;20042;-77
2022/05/27 04:50:35;;;;;;;16.52;4.53;;;12.50;99.90;;;;;;4992744;28;20056;-77
2022/05/27 04:53:03;;;;;;;17.08;4.03;;;12.50;99.90;;;;;;5003697;28;20055;-78
2022/05/27 04:55:31;;;;;;;20.80;4.35;;;12.50;99.90;;;;;;5000775;28;20053;-78
2022/05/27 04:57:59;;;;;;;16.40;5.15;;;12.50;99.90;;;;;;4984219;28;20056;-77
2022/05/27 05:00:46;;;;;;;17.48;4.13;;;12.50;99.90;;;;;;4980851;28;20052;-78
2022/05/27 05:03:13;;;;;;;12.80;3.40;;;12.50;99.90;;;;;;4988810;28;20056;-78
2022/05/27 05:05:40;;;;;;;19.10;4.22;;;12.50;99.90;;;;;;4962092;28;20048;-78
2022/05/27 05:08:28;;;;;;;13.52;4.10;;;12.50;99.90;;;;;;4958483;28;20056;-78
2022/05/27 05:10:55;;;;;;;18.25;3.85;;;12.50;99.90;;;;;;5003137;28;20045;-78
2022/05/27 05:13:21;;;;;;;16.15;4.47;;;12.50;99.90;;;;;;5008918;28;20044;-77
2022/05/27 05:15:47;;;;;;;17.73;4.28;;;12.50;99.90;;;;;;4988310;28;20130;-76
2022/05/27 05:18:14;;;;;;;14.48;4.00;;;12.50;99.90;;;;;;5004957;28;20682;-77
2022/05/27 05:20:40;;;;;;;14.82;3.95;;;12.50;99.90;;;;;;4993229;28;20062;-76
2022/05/27 05:23:06;;;;;;;18.13;4.20;;;12.60;99.90;;;;;;5024833;28;20056;-77
2022/05/27 05:25:33;;;;;;;17.55;4.07;;;12.60;99.90;;;;;;4975527;28;20620;-77
2022/05/27 05:28:01;;;;;;;16.70;4.10;;;12.70;99.90;;;;;;4990019;28;20417;-77
2022/05/27 05:30:30;;;;;;;17.98;4.18;;;12.80;99.90;;;;;;5016345;28;20042;-76
2022/05/27 05:32:56;;;;;;;16.73;4.03;;;12.80;99.90;;;;;;4984094;28;20044;-75
2022/05/27 05:35:23;;;;;;;15.75;3.80;;;13.10;99.90;;;;;;4987379;28;20051;-82
2022/05/27 05:37:49;;;;;;;14.52;3.90;;;13.30;99.90;;;;;;5006169;28;20044;-82
2022/05/27 05:40:16;;;;;;;14.93;3.20;;;13.50;99.90;;;;;;5024820;28;20053;-83
2022/05/27 05:42:46;;;;;;;16.38;6.22;;;13.80;99.90;;;;;;5003642;28;20049;-79
2022/05/27 05:45:17;;;;;;;25.20;14.27;;;13.80;99.90;;;;;;5013958;28;20487;-81
2022/05/27 05:47:46;;;;;;;15.33;3.87;;;14.00;99.90;;;;;;5014302;28;20133;-81
2022/05/27 05:50:16;;;;;;;13.77;5.40;;;14.00;99.90;;;;;;4999329;28;20895;-81
2022/05/27 05:52:43;;;;;;;15.93;3.33;;;13.90;99.90;;;;;;4997202;28;20475;-81
2022/05/27 05:55:12;;;;;;;17.75;4.00;;;13.70;99.90;;;;;;5007597;28;20049;-81
2022/05/27 05:57:43;;;;;;;13.27;3.85;;;13.40;99.90;;;;;;5002389;28;20651;-81
2022/05/27 06:00:12;;;;;;;12.75;3.35;;;13.30;99.90;;;;;;4986561;28;20128;-82
2022/05/27 06:02:42;;;;;;;14.60;4.15;;;13.40;99.90;;;;;;5000070;28;20037;-81
2022/05/27 06:05:09;;;;;;;14.38;3.60;;;13.60;99.90;;;;;;5007153;28;20081;-80
2022/05/27 06:07:36;;;;;;;9.93;4.35;;;13.90;99.90;;;;;;4989623;28;20041;-80
2022/05/27 06:10:03;;;;;;;14.85;3.28;;;14.30;99.90;;;;;;5015299;28;20056;-80
2022/05/27 06:12:35;;;;;;;10.57;2.80;;;14.60;99.90;;;;;;4958953;28;20127;-80
2022/05/27 06:15:04;;;;;;;16.77;7.72;;;14.90;99.90;;;;;;5006128;28;20048;-80
2022/05/27 06:17:30;;;;;;;16.88;3.75;;;15.10;99.90;;;;;;4976773;28;20080;-80
2022/05/27 06:19:56;;;;;;;12.30;3.70;;;14.90;99.90;;;;;;4992687;28;20494;-80
2022/05/27 06:22:22;;;;;;;18.08;7.15;;;15.00;99.90;;;;;;4967202;28;20045;-80
2022/05/27 06:24:48;;;;;;;15.82;3.78;;;15.00;99.90;;;;;;4952978;28;20543;-81
2022/05/27 06:27:15;;;;;;;17.75;7.78;;;15.10;99.90;;;;;;4976637;28;20177;-81
2022/05/27 06:35:11;;;;;;;15.65;5.72;;;15.40;99.90;;;;;;5026809;28;20048;-82
2022/05/27 06:37:37;;;;;;;12.35;3.53;;;15.20;99.90;;;;;;5022339;28;20047;-82
2022/05/27 06:40:06;;;;;;;14.52;5.20;;;15.50;99.90;;;;;;4999786;28;20049;-82
2022/05/27 06:42:32;;;;;;;9.63;2.55;;;15.60;99.90;;;;;;5014349;28;20087;-83
2022/05/27 06:44:59;;;;;;;10.60;3.00;;;15.70;99.90;;;;;;5007454;28;20414;-84
2022/05/27 06:47:25;;;;;;;13.15;3.63;;;16.00;99.90;;;;;;4996435;28;20423;-84
2022/05/27 06:49:51;;;;;;;11.70;2.90;;;16.20;99.90;;;;;;4993674;28;20052;-84
2022/05/27 06:52:18;;;;;;;14.13;3.53;;;16.30;99.90;;;;;;4979701;28;20041;-82
2022/05/27 06:54:44;;;;;;;10.20;2.72;;;15.80;99.90;;;;;;4979449;28;20060;-81
2022/05/27 06:57:10;;;;;;;12.07;3.40;;;16.10;99.90;;;;;;4972384;28;20049;-80
2022/05/27 06:59:37;;;;;;;11.23;2.60;;;16.20;99.90;;;;;;4961032;28;20119;-79
2022/05/27 07:02:04;;;;;;;34.10;24.15;;;16.40;99.90;;;;;;4979036;28;20056;-82
2022/05/27 07:04:30;;;;;;;16.30;5.32;;;16.60;99.90;;;;;;5005232;28;20045;-81
2022/05/27 07:06:57;;;;;;;15.85;3.72;;;16.40;99.90;;;;;;4976673;28;20044;-81
2022/05/27 07:09:24;;;;;;;14.38;3.53;;;16.30;99.90;;;;;;4986365;28;20550;-80
2022/05/27 07:11:55;;;;;;;17.65;4.25;;;15.70;99.90;;;;;;4993619;28;20052;-81
2022/05/27 07:14:21;;;;;;;13.35;3.67;;;15.80;99.90;;;;;;5016558;28;20041;-79
2022/05/27 07:16:48;;;;;;;13.52;4.00;;;15.70;99.90;;;;;;5008777;28;20036;-82
2022/05/27 07:19:17;;;;;;;11.38;2.78;;;15.70;99.90;;;;;;4991872;28;20410;-81
2022/05/27 07:21:45;;;;;;;15.25;3.00;;;15.20;99.90;;;;;;4982043;28;20068;-82
2022/05/27 07:24:13;;;;;;;13.73;3.42;;;15.40;99.90;;;;;;4991507;28;20041;-83
2022/05/27 07:26:41;;;;;;;12.80;3.28;;;15.70;99.90;;;;;;5008707;28;20051;-81
2022/05/27 07:29:08;;;;;;;14.75;5.20;;;16.10;99.90;;;;;;5007526;28;20128;-81
2022/05/27 07:31:35;;;;;;;14.25;7.53;;;16.30;99.90;;;;;;5016400;28;20804;-80
2022/05/27 07:34:02;;;;;;;15.98;5.65;;;16.10;99.90;;;;;;4988722;28;20067;-82
2022/05/27 07:36:28;;;;;;;11.77;3.38;;;16.30;99.90;;;;;;5028570;28;20069;-81
2022/05/27 07:38:57;;;;;;;9.40;3.08;;;16.40;99.90;;;;;;4985588;28;20049;-82
2022/05/27 07:41:26;;;;;;;15.52;4.32;;;16.40;99.90;;;;;;5004817;28;20340;-82
2022/05/27 07:43:53;;;;;;;11.52;2.95;;;16.20;99.90;;;;;;5008566;28;20051;-81
2022/05/27 07:46:21;;;;;;;10.40;3.28;;;16.50;99.90;;;;;;4973775;28;20052;-81
2022/05/27 07:48:47;;;;;;;12.15;3.95;;;16.90;99.90;;;;;;5007913;28;20036;-81
2022/05/27 07:51:15;;;;;;;12.13;4.32;;;17.00;99.90;;;;;;5008604;28;20048;-81
2022/05/27 07:53:41;;;;;;;12.63;3.72;;;16.90;99.90;;;;;;4992870;28;20048;-81
2022/05/27 07:56:10;;;;;;;14.48;7.60;;;16.60;99.90;;;;;;4986219;28;20175;-80
2022/05/27 07:58:37;;;;;;;14.30;6.53;;;16.60;99.90;;;;;;4984406;28;20060;-81
2022/05/27 08:01:04;;;;;;;18.40;6.97;;;16.20;99.90;;;;;;4975218;28;20048;-80
2022/05/27 08:03:30;;;;;;;10.38;3.30;;;16.20;99.90;;;;;;5021973;28;20110;-80
2022/05/27 08:05:58;;;;;;;8.07;3.13;;;15.90;99.90;;;;;;4994885;28;20616;-81
2022/05/27 08:08:25;;;;;;;16.95;9.60;;;16.40;99.90;;;;;;4989527;28;20044;-80
2022/05/27 08:10:51;;;;;;;19.10;6.45;;;16.60;99.90;;;;;;4987714;28;20049;-81
2022/05/27 08:13:17;;;;;;;16.42;10.38;;;16.80;99.90;;;;;;4975174;28;20048;-81
2022/05/27 08:15:44;;;;;;;13.15;5.55;;;17.00;99.90;;;;;;4951002;28;20110;-81
2022/05/27 08:18:10;;;;;;;14.15;3.08;;;16.70;99.90;;;;;;4974877;28;20052;-81
2022/05/27 08:20:38;;;;;;;10.93;3.90;;;16.20;99.90;;;;;;4976518;28;20364;-80
2022/05/27 08:23:06;;;;;;;9.00;2.95;;;16.10;99.90;;;;;;4973667;28;20544;-80
2022/05/27 08:25:32;;;;;;;13.40;3.45;;;16.00;99.90;;;;;;4986775;28;20533;-80
2022/05/27 08:27:58;;;;;;;9.82;3.10;;;16.60;99.90;;;;;;5004869;28;20044;-84
2022/05/27 08:30:29;;;;;;;9.70;2.90;;;17.00;99.90;;;;;;5002285;28;20236;-82
2022/05/27 08:32:56;;;;;;;10.15;2.85;;;17.20;99.90;;;;;;5006745;28;20083;-83
2022/05/27 08:38:13;;;;;;;10.50;2.90;;;17.10;99.90;;;;;;4988017;28;20049;-82
2022/05/27 08:40:52;;;;;;;9.13;2.90;;;16.90;99.90;;;;;;4989616;28;20160;-83
2022/05/27 08:43:24;;;;;;;10.65;2.75;;;17.10;99.90;;;;;;4971777;28;20053;-84
2022/05/27 08:46:12;;;;;;;8.85;2.28;;;17.20;99.90;;;;;;5023001;28;20167;-80
2022/05/27 08:48:42;;;;;;;10.27;2.60;;;17.70;95.90;;;;;;4976510;28;20044;-82
2022/05/27 08:51:41;;;;;;;10.35;3.03;;;17.40;99.70;;;;;;5004572;28;20099;-83
2022/05/27 08:54:10;;;;;;;10.38;3.00;;;17.70;97.30;;;;;;4996614;28;20048;-82
2022/05/27 08:59:43;;;;;;;9.40;2.58;;;18.10;98.80;;;;;;5027614;28;20044;-83
2022/05/27 09:02:34;;;;;;;8.18;2.45;;;18.30;91.80;;;;;;4977883;28;20048;-83
2022/05/27 09:05:22;;;;;;;9.38;2.45;;;18.40;98.50;;;;;;4994927;28;20484;-81
2022/05/27 09:08:19;;;;;;;11.93;2.70;;;18.40;95.20;;;;;;5004610;28;20037;-82
2022/05/27 09:10:59;;;;;;;11.52;3.85;;;18.30;97.20;;;;;;5007298;28;20052;-82
2022/05/27 09:13:35;;;;;;;12.38;2.85;;;17.80;95.30;;;;;;4997045;28;20560;-81
2022/05/27 09:16:23;;;;;;;11.63;3.35;;;17.50;99.90;;;;;;4973509;28;20064;-83
2022/05/27 09:19:05;;;;;;;11.68;3.22;;;17.20;99.90;;;;;;4969572;28;20941;-82
2022/05/27 09:21:41;;;;;;;11.05;2.60;;;17.00;99.90;;;;;;4976107;28;20049;-82
2022/05/27 09:24:40;;;;;;;11.48;2.83;;;17.30;99.90;;;;;;4969041;28;20384;-83
2022/05/27 09:27:14;;;;;;;9.10;2.22;;;17.80;99.90;;;;;;5020135;28;20079;-82
2022/05/27 09:30:05;;;;;;;8.55;2.72;;;17.90;99.50;;;;;;4997322;28;20040;-82
2022/05/27 09:33:19;;;;;;;8.18;1.95;;;17.40;99.90;;;;;;5018666;28;20376;-82
2022/05/27 09:35:50;;;;;;;9.70;2.55;;;17.10;95.10;;;;;;4968053;28;20060;-83
2022/05/27 09:38:32;;;;;;;8.93;2.42;;;18.00;98.40;;;;;;5022618;28;20044;-81
2022/05/27 09:41:11;;;;;;;8.50;2.15;;;18.20;96.60;;;;;;4988110;28;20473;-81
2022/05/27 09:44:08;;;;;;;9.23;2.42;;;18.60;95.30;;;;;;4989107;28;20132;-82
2022/05/27 09:46:35;;;;;;;33.85;27.40;;;18.10;99.00;;;;;;4972752;28;20091;-80
2022/05/27 09:49:01;;;;;;;9.35;2.45;;;18.00;99.90;;;;;;4992984;28;20053;-84
2022/05/27 09:51:31;;;;;;;12.35;4.43;;;18.60;99.90;;;;;;4996919;28;20052;-80
2022/05/27 09:54:12;;;;;;;10.55;4.68;;;18.10;99.90;;;;;;4976656;28;20049;-84
2022/05/27 09:56:41;;;;;;;11.40;3.53;;;17.80;99.90;;;;;;4993353;28;20056;-84
2022/05/27 09:59:34;;;;;;;10.65;2.55;;;17.50;99.90;;;;;;5012091;28;20052;-84
2022/05/27 10:02:16;;;;;;;10.32;2.60;;;17.80;99.90;;;;;;4993488;28;20043;-82
2022/05/27 10:04:51;;;;;;;8.45;2.35;;;18.00;99.90;;;;;;4998866;28;20440;-84
2022/05/27 10:07:29;;;;;;;7.35;2.40;;;17.40;99.90;;;;;;4970948;28;20040;-84
2022/05/27 10:09:56;;;;;;;9.75;2.40;;;17.80;97.90;;;;;;5011183;28;20430;-85
2022/05/27 10:12:33;;;;;;;9.55;2.33;;;17.90;99.90;;;;;;5007602;28;20548;-84
2022/05/27 10:14:59;;;;;;;10.13;2.33;;;17.40;99.90;;;;;;5009386;28;20380;-84
2022/05/27 10:17:36;;;;;;;6.72;2.20;;;17.70;99.90;;;;;;5003498;28;20049;-84
2022/05/27 10:20:33;;;;;;;10.70;2.28;;;17.40;94.50;;;;;;5008337;28;20067;-85
2022/05/27 10:23:07;;;;;;;7.55;2.38;;;17.00;99.80;;;;;;5008201;28;20623;-85
2022/05/27 10:25:40;;;;;;;10.07;2.60;;;17.60;99.90;;;;;;4994097;28;20045;-85
2022/05/27 10:28:08;;;;;;;11.02;2.75;;;18.00;99.50;;;;;;4993652;28;20055;-85
2022/05/27 10:30:51;;;;;;;10.38;2.80;;;18.10;99.90;;;;;;5010270;28;20037;-85
2022/05/27 10:33:23;;;;;;;7.13;1.90;;;17.30;97.00;;;;;;5006841;28;20061;-84
2022/05/27 10:35:52;;;;;;;10.70;1.98;;;17.10;94.10;;;;;;4993020;28;20049;-83
2022/05/27 10:38:56;;;;;;;7.47;2.20;;;17.10;97.00;;;;;;4990658;28;20056;-84
2022/05/27 10:41:49;;;;;;;10.65;2.67;;;17.80;94.70;;;;;;4972392;28;20450;-86
2022/05/27 10:44:47;;;;;;;10.80;4.00;;;17.70;97.90;;;;;;5021652;28;20159;-86
2022/05/27 10:47:51;;;;;;;13.63;5.88;;;17.60;97.70;;;;;;5023159;28;20128;-83
2022/05/27 10:50:46;;;;;;;8.30;2.50;;;18.10;97.40;;;;;;5004047;28;20120;-81
2022/05/27 10:53:44;;;;;;;11.15;2.58;;;18.20;96.40;;;;;;5015075;28;20550;-83
2022/05/27 10:56:25;;;;;;;10.77;4.28;;;17.80;99.00;;;;;;4982315;28;20291;-83
2022/05/27 11:02:12;;;;;;;13.57;3.55;;;17.70;99.70;;;;;;5002171;28;20569;-83
2022/05/27 11:04:57;;;;;;;9.00;2.35;;;17.90;99.90;;;;;;4985429;28;20041;-82
2022/05/27 11:07:32;;;;;;;9.52;3.00;;;18.30;99.90;;;;;;5015504;28;20048;-83
2022/05/27 11:10:01;;;;;;;12.35;2.58;;;18.40;99.90;;;;;;5006466;28;20124;-82
2022/05/27 11:15:48;;;;;;;11.82;2.80;;;17.60;99.90;;;;;;5024942;28;20057;-83
2022/05/27 11:18:18;;;;;;;8.23;2.20;;;18.10;99.90;;;;;;5023871;28;20335;-84
2022/05/27 11:20:47;;;;;;;6.10;2.03;;;18.80;99.90;;;;;;5039498;28;20485;-84
2022/05/27 11:23:36;;;;;;;9.80;2.10;;;18.80;92.90;;;;;;5008726;28;20127;-83
2022/05/27 11:26:06;;;;;;;7.60;1.90;;;18.50;87.70;;;;;;4987358;28;20514;-84
2022/05/27 11:28:31;;;;;;;10.43;2.50;;;17.90;97.40;;;;;;5006874;28;20270;-83
2022/05/27 11:31:25;;;;;;;13.27;2.60;;;18.10;99.90;;;;;;5009438;28;20531;-84
2022/05/27 11:33:58;;;;;;;11.35;2.40;;;17.60;99.10;;;;;;4989580;28;20048;-81
2022/05/27 11:36:40;;;;;;;10.00;2.70;;;17.40;99.90;;;;;;5023946;28;20047;-82
2022/05/27 11:39:32;;;;;;;9.82;2.70;;;17.20;99.90;;;;;;4986762;28;20053;-82
2022/05/27 11:42:26;;;;;;;13.68;2.78;;;16.80;99.90;;;;;;5019445;28;20102;-82
2022/05/27 11:45:22;;;;;;;13.93;3.10;;;17.50;99.90;;;;;;5020742;28;20045;-81
2022/05/27 11:48:02;;;;;;;10.40;2.22;;;17.60;99.90;;;;;;5000009;28;20041;-81
2022/05/27 11:51:07;;;;;;;9.73;2.63;;;17.50;96.30;;;;;;4990480;28;20083;-82
2022/05/27 11:54:00;;;;;;;10.25;2.20;;;17.50;99.90;;;;;;5022728;28;20037;-82
2022/05/27 11:56:41;;;;;;;9.88;2.40;;;17.30;99.90;;;;;;5006915;28;20075;-83
2022/05/27 11:59:31;;;;;;;11.13;2.27;;;17.60;99.90;;;;;;5007250;28;20036;-82
2022/05/27 12:02:08;;;;;;;10.13;2.58;;;17.30;97.80;;;;;;5006374;28;21306;-82
2022/05/27 12:05:01;;;;;;;13.60;3.83;;;17.60;99.90;;;;;;4985236;28;20130;-81
2022/05/27 12:07:51;;;;;;;14.10;4.55;;;17.40;99.90;;;;;;4991027;28;20157;-80
2022/05/27 12:10:30;;;;;;;16.20;7.40;;;17.50;99.90;;;;;;5022530;28;20139;-82
2022/05/27 12:13:25;;;;;;;11.27;2.80;;;18.30;99.90;;;;;;5004502;28;20449;-83
2022/05/27 12:15:58;;;;;;;13.68;5.85;;;19.30;99.90;;;;;;5021013;28;20051;-83
2022/05/27 12:18:31;;;;;;;12.18;4.60;;;19.00;93.40;;;;;;5007013;28;20041;-83
2022/05/27 12:20:59;;;;;;;10.02;3.17;;;18.70;96.10;;;;;;5007623;28;20048;-84
2022/05/27 12:23:27;;;;;;;10.02;2.38;;;18.90;95.00;;;;;;4988649;28;20068;-83
2022/05/27 12:25:57;;;;;;;9.50;2.92;;;18.20;94.80;;;;;;5005433;28;20041;-83
2022/05/27 12:28:31;;;;;;;9.68;2.97;;;17.80;98.90;;;;;;5003680;28;20049;-83
2022/05/27 12:31:00;;;;;;;106.05;94.45;;;17.70;99.90;;;;;;5004834;28;20091;-85
2022/05/27 12:33:28;;;;;;;11.30;2.90;;;18.30;99.90;;;;;;4988440;28;20495;-84
2022/05/27 12:36:07;;;;;;;14.23;6.45;;;18.50;99.70;;;;;;5005438;28;20506;-84
2022/05/27 12:38:36;;;;;;;12.65;3.35;;;18.10;99.70;;;;;;5022060;28;20143;-83
2022/05/27 12:41:09;;;;;;;9.10;2.78;;;17.60;99.90;;;;;;5005063;28;20049;-82
2022/05/27 12:43:38;;;;;;;10.55;2.72;;;17.00;99.90;;;;;;5006754;28;20056;-83
2022/05/27 12:46:04;;;;;;;11.40;3.30;;;16.90;99.90;;;;;;4989570;28;20056;-83
2022/05/27 12:48:46;;;;;;;13.32;3.40;;;17.30;99.90;;;;;;5006258;28;20041;-83
2022/05/27 12:51:16;;;;;;;12.82;2.55;;;17.20;99.90;;;;;;5023466;28;20059;-83
2022/05/27 12:53:44;;;;;;;10.32;2.35;;;18.00;99.90;;;;;;4989191;28;20149;-82
2022/05/27 13:02:21;;;;;;;11.90;2.50;;;17.30;99.90;;;;;;5009085;28;20110;-80
2022/05/27 13:04:47;;;;;;;27.40;17.50;;;17.50;99.90;;;;;;5020389;28;20399;-82
2022/05/27 13:07:20;;;;;;;13.88;3.97;;;18.00;99.90;;;;;;5001082;28;20048;-82
2022/05/27 13:09:47;;;;;;;13.20;2.47;;;18.00;97.30;;;;;;5004750;28;20049;-82
2022/05/27 13:12:47;;;;;;;10.05;3.22;;;17.90;99.90;;;;;;4953177;28;20076;-83
2022/05/27 13:15:31;;;;;;;12.88;4.18;;;17.80;99.90;;;;;;4981969;28;20518;-83
2022/05/27 13:18:17;;;;;;;13.23;2.67;;;17.40;99.90;;;;;;4994041;28;20131;-83
2022/05/27 13:21:09;;;;;;;9.77;2.78;;;17.30;99.90;;;;;;4982892;28;20049;-83
2022/05/27 13:23:49;;;;;;;;;;;17.20;99.90;;;;;;4981591;28;20037;-83
2022/05/27 13:26:29;;;;;;;13.00;2.78;;;17.80;99.90;;;;;;4979510;28;20365;-82
2022/05/27 13:28:58;;;;;;;11.73;2.88;;;19.00;99.90;;;;;;4992386;28;20045;-84
2022/05/27 13:31:41;;;;;;;14.57;3.10;;;18.60;98.50;;;;;;4987935;28;20040;-84
2022/05/27 13:34:16;;;;;;;10.50;2.45;;;18.40;99.90;;;;;;4982247;28;20351;-83
2022/05/27 13:36:56;;;;;;;8.55;2.20;;;18.60;99.90;;;;;;4983574;28;20578;-84
2022/05/27 13:39:39;;;;;;;10.75;2.40;;;18.60;85.70;;;;;;5014147;28;20053;-83
2022/05/27 13:42:08;;;;;;;9.82;3.72;;;17.70;97.70;;;;;;4994712;28;20504;-81
2022/05/27 13:44:39;;;;;;;11.02;2.85;;;17.90;99.90;;;;;;4973394;28;20552;-82